createdAt,value
2023-04-15T00:00:31.857Z,8.21
2023-04-15T00:03:02.610Z,8.42
2023-04-15T00:05:33.640Z,8.42
2023-04-15T00:08:04.614Z,8.22
2023-04-15T00:10:36.869Z,8.49
2023-04-15T00:13:08.330Z,8.33
2023-04-15T00:15:39.461Z,8.39
2023-04-15T00:18:09.796Z,8.38
2023-04-15T00:20:39.860Z,8.41
2023-04-15T00:23:10.300Z,8.37
2023-04-15T00:25:42.563Z,8.04
2023-04-15T00:28:12.723Z,8.41
2023-04-15T00:30:43.250Z,8.52
2023-04-15T00:33:14.954Z,8.08
2023-04-15T00:35:45.118Z,8.27
2023-04-15T00:38:16.033Z,8.37
2023-04-15T00:40:47.682Z,8.27
2023-04-15T00:43:18.249Z,8.57
2023-04-15T00:45:48.661Z,8.38
2023-04-15T00:48:19.021Z,7.99
2023-04-15T00:50:49.579Z,8.08
2023-04-15T00:53:19.860Z,8.44
2023-04-15T00:55:52.302Z,8.33
2023-04-15T00:58:22.734Z,8.38
2023-04-15T01:00:54.796Z,8.45
2023-04-15T01:03:26.326Z,8.37
2023-04-15T01:05:58.816Z,8.33
2023-04-15T01:08:30.343Z,8.45
2023-04-15T01:11:04.467Z,8.22
2023-04-15T01:13:38.215Z,8.35
2023-04-15T01:16:10.041Z,8.53
2023-04-15T01:18:40.991Z,8.38
2023-04-15T01:21:11.001Z,8.26
2023-04-15T01:23:41.363Z,8.31
2023-04-15T01:26:13.715Z,8.03
2023-04-15T01:28:43.902Z,7.99
2023-04-15T01:31:16.240Z,8.18
2023-04-15T01:33:46.902Z,8.12
2023-04-15T01:36:17.681Z,8.13
2023-04-15T01:38:48.150Z,7.92
2023-04-15T01:41:26.311Z,7.87
2023-04-15T01:43:56.916Z,8.19
2023-04-15T01:46:27.845Z,8.15
2023-04-15T01:48:58.866Z,8.06
2023-04-15T01:51:29.688Z,7.91
2023-04-15T01:54:00.044Z,7.86
2023-04-15T01:56:32.164Z,8.10
2023-04-15T01:59:11.604Z,8.33
2023-04-15T02:01:41.682Z,8.02
2023-04-15T02:04:16.771Z,7.97
2023-04-15T02:06:47.348Z,8.31
2023-04-15T02:09:18.201Z,8.20
2023-04-15T02:11:49.983Z,8.03
2023-04-15T02:14:20.866Z,7.81
2023-04-15T02:16:51.335Z,7.97
2023-04-15T02:19:22.361Z,7.86
2023-04-15T02:21:52.410Z,8.00
2023-04-15T02:24:22.887Z,8.09
2023-04-15T02:26:54.912Z,7.95
2023-04-15T02:29:26.017Z,8.05
2023-04-15T02:31:57.378Z,8.07
2023-04-15T02:34:28.377Z,8.21
2023-04-15T02:36:59.074Z,8.35
2023-04-15T02:39:29.471Z,8.26
2023-04-15T02:42:01.729Z,8.25
2023-04-15T02:44:34.369Z,8.35
2023-04-15T02:47:06.788Z,8.13
2023-04-15T02:49:37.497Z,7.90
2023-04-15T02:52:08.041Z,8.24
2023-04-15T02:54:38.310Z,8.15
2023-04-15T02:57:10.926Z,8.26
2023-04-15T02:59:41.530Z,8.29
2023-04-15T03:02:11.554Z,8.09
2023-04-15T03:04:42.158Z,7.81
2023-04-15T03:07:12.232Z,8.13
2023-04-15T03:09:42.652Z,8.07
2023-04-15T03:12:13.865Z,8.01
2023-04-15T03:14:44.190Z,7.86
2023-04-15T03:17:14.752Z,8.15
2023-04-15T03:19:45.576Z,7.96
2023-04-15T03:22:15.907Z,7.73
2023-04-15T03:24:46.565Z,8.24
2023-04-15T03:27:19.319Z,8.33
2023-04-15T03:29:49.757Z,8.12
2023-04-15T03:32:20.245Z,7.98
2023-04-15T03:34:52.183Z,8.13
2023-04-15T03:37:23.182Z,8.17
2023-04-15T03:39:53.563Z,8.01
2023-04-15T03:42:25.730Z,7.82
2023-04-15T03:44:55.614Z,7.95
2023-04-15T03:47:25.584Z,8.12
2023-04-15T03:49:55.884Z,7.99
2023-04-15T03:52:26.666Z,7.96
2023-04-15T03:54:58.286Z,7.89
2023-04-15T03:57:30.229Z,7.78
2023-04-15T04:00:01.416Z,7.61
2023-04-15T04:02:32.311Z,7.78
2023-04-15T04:05:03.149Z,7.71
2023-04-15T04:07:32.978Z,7.58
2023-04-15T04:10:04.126Z,7.63
2023-04-15T04:12:36.759Z,7.84
2023-04-15T04:15:08.450Z,7.87
2023-04-15T04:17:39.555Z,7.77
2023-04-15T04:20:11.059Z,7.86
2023-04-15T04:22:41.944Z,7.59
2023-04-15T04:25:13.904Z,7.86
2023-04-15T04:27:45.763Z,7.95
2023-04-15T04:30:17.118Z,7.97
2023-04-15T04:32:47.619Z,7.85
2023-04-15T04:35:24.668Z,8.06
2023-04-15T04:37:55.735Z,7.89
2023-04-15T04:40:38.098Z,7.89
2023-04-15T04:43:10.417Z,8.07
2023-04-15T04:45:40.768Z,7.98
2023-04-15T04:48:11.470Z,7.75
2023-04-15T04:50:41.502Z,7.94
2023-04-15T04:53:12.354Z,7.71
2023-04-15T04:55:42.795Z,7.89
2023-04-15T04:58:17.452Z,8.25
2023-04-15T05:00:47.383Z,8.01
2023-04-15T05:03:17.981Z,7.85
2023-04-15T05:05:50.001Z,7.87
2023-04-15T05:08:20.265Z,7.79
2023-04-15T05:10:50.415Z,7.82
2023-04-15T05:13:22.549Z,8.02
2023-04-15T05:15:52.816Z,8.01
2023-04-15T05:18:22.857Z,8.34
2023-04-15T05:20:53.800Z,8.29
2023-04-15T05:23:24.033Z,8.28
2023-04-15T05:25:54.287Z,8.20
2023-04-15T05:28:26.093Z,8.06
2023-04-15T05:30:56.672Z,7.87
2023-04-15T05:33:26.489Z,8.00
2023-04-15T05:35:57.377Z,7.95
2023-04-15T05:38:27.839Z,8.04
2023-04-15T05:40:59.064Z,8.00
2023-04-15T05:43:30.903Z,7.99
2023-04-15T05:46:17.108Z,8.24
2023-04-15T05:48:47.247Z,8.26
2023-04-15T05:51:18.428Z,8.55
2023-04-15T05:53:48.226Z,8.40
2023-04-15T05:56:18.458Z,8.31
2023-04-15T05:58:51.316Z,8.37
2023-04-15T06:01:23.264Z,8.49
2023-04-15T06:03:55.963Z,8.23
2023-04-15T06:06:27.651Z,8.11
2023-04-15T06:08:57.663Z,8.34
2023-04-15T06:11:29.339Z,8.44
2023-04-15T06:14:00.513Z,8.38
2023-04-15T06:16:30.553Z,8.24
2023-04-15T06:19:01.460Z,8.30
2023-04-15T06:21:33.556Z,8.21
2023-04-15T06:24:04.183Z,8.41
2023-04-15T06:26:34.591Z,8.63
2023-04-15T06:29:06.655Z,8.41
2023-04-15T06:31:37.176Z,8.27
2023-04-15T06:34:08.404Z,8.39
2023-04-15T06:36:38.643Z,8.33
2023-04-15T06:39:09.009Z,8.30
2023-04-15T06:41:39.296Z,8.20
2023-04-15T06:44:10.798Z,8.31
2023-04-15T06:46:40.852Z,8.35
2023-04-15T06:49:12.077Z,8.34
2023-04-15T06:51:44.633Z,8.28
2023-04-15T06:54:15.038Z,8.15
2023-04-15T06:56:46.017Z,8.40
2023-04-15T06:59:17.957Z,8.47
2023-04-15T07:01:48.349Z,8.36
2023-04-15T07:04:18.666Z,8.46
2023-04-15T07:06:49.161Z,8.59
2023-04-15T07:09:19.403Z,8.63
2023-04-15T07:11:50.218Z,8.55
2023-04-15T07:14:22.528Z,8.41
2023-04-15T07:16:53.137Z,8.56
2023-04-15T07:19:23.676Z,8.62
2023-04-15T07:21:53.778Z,8.37
2023-04-15T07:24:26.913Z,8.50
2023-04-15T07:26:59.449Z,8.50
2023-04-15T07:29:32.129Z,8.56
2023-04-15T07:32:02.441Z,8.80
2023-04-15T07:34:33.178Z,8.66
2023-04-15T07:37:04.850Z,8.68
2023-04-15T07:39:42.026Z,8.89
2023-04-15T07:42:12.992Z,9.00
2023-04-15T07:44:44.943Z,8.90
2023-04-15T07:47:14.938Z,8.72
2023-04-15T07:49:47.630Z,8.53
2023-04-15T07:52:17.726Z,8.83
2023-04-15T07:54:48.403Z,8.99
2023-04-15T07:57:18.976Z,8.58
2023-04-15T07:59:51.711Z,8.70
2023-04-15T08:02:22.090Z,8.50
2023-04-15T08:04:52.015Z,8.28
2023-04-15T08:07:23.507Z,8.36
2023-04-15T08:09:54.469Z,8.58
2023-04-15T08:12:25.613Z,8.86
2023-04-15T08:14:58.368Z,9.04
2023-04-15T08:17:28.654Z,8.99
2023-04-15T08:19:58.942Z,9.00
2023-04-15T08:22:30.057Z,8.87
2023-04-15T08:25:00.390Z,9.13
2023-04-15T08:27:30.957Z,9.09
2023-04-15T08:30:04.999Z,9.16
2023-04-15T08:32:35.747Z,9.10
2023-04-15T08:35:06.757Z,9.07
2023-04-15T08:37:36.656Z,9.23
2023-04-15T08:40:08.840Z,9.20
2023-04-15T08:42:44.954Z,9.09
2023-04-15T08:45:17.246Z,8.71
2023-04-15T08:47:48.841Z,8.81
2023-04-15T08:50:20.114Z,8.58
2023-04-15T08:52:50.389Z,8.94
2023-04-15T08:55:21.335Z,8.61
2023-04-15T08:57:52.403Z,8.93
2023-04-15T09:00:25.129Z,9.15
2023-04-15T09:02:55.706Z,9.15
2023-04-15T09:05:26.074Z,9.28
2023-04-15T09:07:57.191Z,9.15
2023-04-15T09:10:27.795Z,9.01
2023-04-15T09:12:59.050Z,9.11
2023-04-15T09:15:31.436Z,9.00
2023-04-15T09:18:02.250Z,8.93
2023-04-15T09:20:32.592Z,9.26
2023-04-15T09:23:02.879Z,9.33
2023-04-15T09:25:34.932Z,9.14
2023-04-15T09:28:06.182Z,9.25
2023-04-15T09:30:39.076Z,9.21
2023-04-15T09:33:11.369Z,9.09
2023-04-15T09:35:41.255Z,9.39
2023-04-15T09:38:13.278Z,9.23
2023-04-15T09:40:44.435Z,9.43
2023-04-15T09:43:14.627Z,9.34
2023-04-15T09:45:51.833Z,9.28
2023-04-15T09:48:23.691Z,9.61
2023-04-15T09:50:54.244Z,9.38
2023-04-15T09:53:25.835Z,9.37
2023-04-15T09:55:57.446Z,9.43
2023-04-15T09:58:29.143Z,9.84
2023-04-15T10:01:02.585Z,9.62
2023-04-15T10:03:34.864Z,9.58
2023-04-15T10:06:06.155Z,9.52
2023-04-15T10:08:37.064Z,9.31
2023-04-15T10:11:07.139Z,9.61
2023-04-15T10:13:37.954Z,9.50
2023-04-15T10:16:13.296Z,9.67
2023-04-15T10:18:46.434Z,9.69
2023-04-15T10:21:19.251Z,9.60
2023-04-15T10:23:50.736Z,9.78
2023-04-15T10:26:21.411Z,9.49
2023-04-15T10:28:51.106Z,10.03
2023-04-15T10:31:23.727Z,10.34
2023-04-15T10:33:54.246Z,9.99
2023-04-15T10:36:24.402Z,9.87
2023-04-15T10:38:54.554Z,9.64
2023-04-15T10:41:26.907Z,9.45
2023-04-15T10:43:59.276Z,9.64
2023-04-15T10:46:40.182Z,9.68
2023-04-15T10:49:12.402Z,9.43
2023-04-15T10:51:46.435Z,9.70
2023-04-15T10:54:18.228Z,9.65
2023-04-15T10:56:52.509Z,9.97
2023-04-15T10:59:23.432Z,9.83
2023-04-15T11:02:00.453Z,9.77
2023-04-15T11:04:57.755Z,9.88
2023-04-15T11:07:39.056Z,9.93
2023-04-15T11:10:56.809Z,9.85
2023-04-15T11:13:29.655Z,9.81
2023-04-15T11:16:02.111Z,9.79
2023-04-15T11:18:35.820Z,9.85
2023-04-15T11:21:08.362Z,9.89
2023-04-15T11:23:41.664Z,10.05
2023-04-15T11:26:14.887Z,9.96
2023-04-15T11:28:46.982Z,10.00
2023-04-15T11:31:20.588Z,10.15
2023-04-15T11:33:59.941Z,9.97
2023-04-15T11:36:32.300Z,9.82
2023-04-15T11:39:04.264Z,9.71
2023-04-15T11:41:34.591Z,9.92
2023-04-15T11:44:07.111Z,10.14
2023-04-15T11:46:38.453Z,10.22
2023-04-15T11:49:11.569Z,10.00
2023-04-15T11:51:42.853Z,10.11
2023-04-15T11:54:25.697Z,10.13
2023-04-15T11:56:57.413Z,9.88
2023-04-15T11:59:39.008Z,9.99
2023-04-15T12:02:16.326Z,9.88
2023-04-15T12:04:48.718Z,9.99
2023-04-15T12:07:23.494Z,9.90
2023-04-15T12:09:58.976Z,9.94
2023-04-15T12:12:31.259Z,10.12
2023-04-15T12:15:01.231Z,10.12
2023-04-15T12:17:32.154Z,10.17
2023-04-15T12:20:28.591Z,10.07
2023-04-15T12:23:08.950Z,10.14
2023-04-15T12:25:42.998Z,10.21
2023-04-15T12:28:16.080Z,10.30
2023-04-15T12:30:55.137Z,10.34
2023-04-15T12:33:26.297Z,10.37
2023-04-15T12:36:01.463Z,10.39
2023-04-15T12:38:38.513Z,10.60
2023-04-15T12:41:12.759Z,10.74
2023-04-15T12:43:47.027Z,10.73
2023-04-15T12:46:18.492Z,10.87
2023-04-15T12:48:52.387Z,10.82
2023-04-15T13:12:53.861Z,10.97
2023-04-15T13:15:25.109Z,11.13
2023-04-15T13:17:57.893Z,11.19
2023-04-15T13:20:30.579Z,11.14
2023-04-15T13:23:01.983Z,11.15
2023-04-15T13:25:33.212Z,10.96
2023-04-15T13:28:05.488Z,11.05
2023-04-15T13:30:36.618Z,11.16
2023-04-15T13:33:07.468Z,11.22
2023-04-15T13:35:38.507Z,11.28
2023-04-15T13:38:21.425Z,11.19
2023-04-15T13:40:53.209Z,11.28
2023-04-15T13:43:26.102Z,11.77
2023-04-15T13:45:57.206Z,11.86
2023-04-15T13:48:31.801Z,11.88
2023-04-15T13:51:01.692Z,11.48
2023-04-15T13:53:37.954Z,11.73
2023-04-15T13:56:14.413Z,11.48
2023-04-15T14:11:01.328Z,10.32
2023-04-15T14:13:31.887Z,10.32
2023-04-15T14:16:02.692Z,10.51
2023-04-15T14:18:33.132Z,10.60
2023-04-15T14:21:05.213Z,10.59
2023-04-15T14:23:37.345Z,10.65
2023-04-15T14:26:10.342Z,10.68
2023-04-15T14:28:41.476Z,10.70
2023-04-15T14:31:11.805Z,10.76
2023-04-15T14:33:42.319Z,10.70
2023-04-15T14:36:16.592Z,10.69
2023-04-15T14:38:48.508Z,10.74
2023-04-15T14:41:21.110Z,10.80
2023-04-15T14:43:52.402Z,10.92
2023-04-15T14:46:23.227Z,10.71
2023-04-15T14:48:52.820Z,10.68
2023-04-15T14:51:23.601Z,10.76
2023-04-15T14:53:54.097Z,10.83
2023-04-15T14:56:29.853Z,10.72
2023-04-15T14:59:00.939Z,10.72
2023-04-15T15:01:32.129Z,10.79
2023-04-15T15:04:04.282Z,10.87
2023-04-15T15:06:49.130Z,10.99
2023-04-15T15:09:19.911Z,10.89
2023-04-15T15:11:51.750Z,10.72
2023-04-15T15:14:25.102Z,10.87
2023-04-15T15:16:56.545Z,11.06
2023-04-15T15:19:26.322Z,10.89
2023-04-15T15:21:56.234Z,10.84
2023-04-15T15:24:27.005Z,10.84
2023-04-15T15:26:59.208Z,10.92
2023-04-15T15:29:29.452Z,10.81
2023-04-15T15:31:59.586Z,10.77
2023-04-15T15:34:29.132Z,10.87
2023-04-15T15:37:00.316Z,10.79
2023-04-15T15:39:30.538Z,10.90
2023-04-15T15:42:02.454Z,10.78
2023-04-15T15:44:34.606Z,10.77
2023-04-15T15:47:05.294Z,10.78
2023-04-15T15:49:35.159Z,10.78
2023-04-15T15:52:05.075Z,10.82
2023-04-15T15:54:37.795Z,10.83
2023-04-15T15:57:12.005Z,10.79
2023-04-15T15:59:44.173Z,10.70
2023-04-15T16:02:15.010Z,10.70
2023-04-15T16:04:45.014Z,10.71
2023-04-15T16:07:16.103Z,10.72
2023-04-15T16:09:46.467Z,10.91
2023-04-15T16:12:18.336Z,10.91
2023-04-15T16:14:48.901Z,10.81
2023-04-15T16:17:18.872Z,10.80
2023-04-15T16:19:57.748Z,10.77
2023-04-15T16:22:33.286Z,10.79
2023-04-15T16:25:02.909Z,10.80
2023-04-15T16:27:43.444Z,10.71
2023-04-15T16:30:22.014Z,10.85
2023-04-15T16:32:52.288Z,10.73
2023-04-15T16:35:24.823Z,10.73
2023-04-15T16:37:54.671Z,10.74
2023-04-15T16:40:27.842Z,10.77
2023-04-15T16:43:00.409Z,10.77
2023-04-15T16:45:30.014Z,10.74
2023-04-15T16:47:59.815Z,10.68
2023-04-15T16:50:30.082Z,10.74
2023-04-15T16:53:01.656Z,10.70
2023-04-15T16:55:31.587Z,10.68
2023-04-15T16:58:05.116Z,10.68
2023-04-15T17:00:37.342Z,10.56
2023-04-15T17:03:07.645Z,10.56
2023-04-15T17:05:37.742Z,10.43
2023-04-15T17:08:09.717Z,10.58
2023-04-15T17:10:40.848Z,10.59
2023-04-15T17:13:13.624Z,10.59
2023-04-15T17:15:45.264Z,10.63
2023-04-15T17:18:15.864Z,10.54
2023-04-15T17:20:46.360Z,10.44
2023-04-15T17:23:17.205Z,10.36
2023-04-15T17:25:51.793Z,10.06
2023-04-15T17:28:26.025Z,10.31
2023-04-15T17:30:56.734Z,10.40
2023-04-15T17:33:56.099Z,10.38
2023-04-15T17:36:23.178Z,10.37
2023-04-15T17:38:54.689Z,10.09
2023-04-15T17:41:24.892Z,10.27
2023-04-15T17:43:58.836Z,10.20
2023-04-15T17:46:29.842Z,10.18
2023-04-15T17:49:00.099Z,10.17
2023-04-15T17:51:30.342Z,10.10
2023-04-15T17:54:00.498Z,10.10
2023-04-15T17:56:30.987Z,10.05
2023-04-15T17:59:04.278Z,10.18
2023-04-15T18:01:34.027Z,10.14
2023-04-15T18:04:04.888Z,10.13
2023-04-15T18:06:35.495Z,10.01
2023-04-15T18:09:09.125Z,9.92
2023-04-15T18:11:41.934Z,9.84
2023-04-15T18:14:32.993Z,9.89
2023-04-15T18:17:05.548Z,10.00
2023-04-15T18:19:37.038Z,9.99
2023-04-15T18:22:07.297Z,10.15
2023-04-15T18:24:38.276Z,9.92
2023-04-15T18:27:11.560Z,10.04
2023-04-15T18:29:47.061Z,9.82
2023-04-15T18:32:17.204Z,9.95
2023-04-15T18:34:48.178Z,10.04
2023-04-15T18:37:19.694Z,9.70
2023-04-15T18:39:54.951Z,9.63
2023-04-15T18:42:27.565Z,9.83
2023-04-15T18:45:01.221Z,9.93
2023-04-15T18:47:33.782Z,9.85
2023-04-15T18:50:04.449Z,9.76
2023-04-15T18:52:35.161Z,9.85
2023-04-15T18:55:10.125Z,9.79
2023-04-15T18:57:43.345Z,9.91
2023-04-15T19:00:17.646Z,9.86
2023-04-15T19:02:48.089Z,9.79
2023-04-15T19:05:19.413Z,9.79
2023-04-15T19:07:50.285Z,9.85
2023-04-15T19:10:20.184Z,9.55
2023-04-15T19:12:50.897Z,9.66
2023-04-15T19:15:22.953Z,9.59
2023-04-15T19:17:55.424Z,9.82
2023-04-15T19:20:26.677Z,9.93
2023-04-15T19:22:57.591Z,9.89
2023-04-15T19:25:29.034Z,9.86
2023-04-15T19:28:00.201Z,9.93
2023-04-15T19:30:33.262Z,9.69
2023-04-15T19:33:03.031Z,9.68
2023-04-15T19:35:33.762Z,9.64
2023-04-15T19:38:03.668Z,9.60
2023-04-15T19:40:33.363Z,9.73
2023-04-15T19:43:04.155Z,9.66
2023-04-15T19:45:36.650Z,9.70
2023-04-15T19:48:07.436Z,10.04
2023-04-15T19:50:38.876Z,9.78
2023-04-15T19:53:09.494Z,9.96
2023-04-15T19:55:40.310Z,10.03
2023-04-15T19:58:10.595Z,9.82
2023-04-15T20:00:42.018Z,9.86
2023-04-15T20:03:12.993Z,9.72
2023-04-15T20:05:43.797Z,9.40
2023-04-15T20:08:13.708Z,9.22
2023-04-15T20:10:44.274Z,9.50
2023-04-15T20:13:14.163Z,9.56
2023-04-15T20:15:46.741Z,9.24
2023-04-15T20:18:17.005Z,9.18
2023-04-15T20:20:46.949Z,9.31
2023-04-15T20:23:17.754Z,9.29
2023-04-15T20:25:47.999Z,9.02
2023-04-15T20:28:20.141Z,9.13
2023-04-15T20:30:54.165Z,9.12
2023-04-15T20:33:26.060Z,8.98
2023-04-15T20:35:56.317Z,8.80
2023-04-15T20:38:25.732Z,8.73
2023-04-15T20:40:55.971Z,8.81
2023-04-15T20:43:27.044Z,8.75
2023-04-15T20:46:07.023Z,8.53
2023-04-15T20:48:47.969Z,8.39
2023-04-15T20:51:17.644Z,8.56
2023-04-15T20:53:47.479Z,8.66
2023-04-15T20:56:17.232Z,8.46
2023-04-15T20:58:47.422Z,8.70
2023-04-15T21:01:20.004Z,8.53
2023-04-15T21:03:50.778Z,8.62
2023-04-15T21:06:20.887Z,8.47
2023-04-15T21:08:53.130Z,8.36
2023-04-15T21:11:43.090Z,8.20
2023-04-15T21:14:13.011Z,7.98
2023-04-15T21:16:45.075Z,8.27
2023-04-15T21:19:15.116Z,7.99
2023-04-15T21:21:46.502Z,7.98
2023-04-15T21:24:18.134Z,8.17
2023-04-15T21:26:49.034Z,8.22
2023-04-15T21:29:19.752Z,8.43
2023-04-15T21:31:51.677Z,8.00
2023-04-15T21:34:21.427Z,7.99
2023-04-15T21:36:52.420Z,8.37
2023-04-15T21:39:23.479Z,8.16
2023-04-15T21:41:53.619Z,7.92
2023-04-15T21:44:23.564Z,8.03
2023-04-15T21:46:55.445Z,7.66
2023-04-15T21:49:25.789Z,7.83
2023-04-15T21:52:01.452Z,8.23
2023-04-15T21:54:32.338Z,7.67
2023-04-15T21:57:04.214Z,7.92
2023-04-15T21:59:34.669Z,8.26
2023-04-15T22:02:07.242Z,7.80
2023-04-15T22:04:37.259Z,8.00
2023-04-15T22:07:07.337Z,8.16
2023-04-15T22:09:38.285Z,8.03
2023-04-15T22:12:08.410Z,7.88
2023-04-15T22:14:38.557Z,7.85
2023-04-15T22:17:10.930Z,8.22
2023-04-15T22:19:41.486Z,8.01
2023-04-15T22:22:11.643Z,7.79
2023-04-15T22:24:42.513Z,7.84
2023-04-15T22:27:12.905Z,8.02
2023-04-15T22:29:42.952Z,8.17
2023-04-15T22:32:14.938Z,7.63
2023-04-15T22:34:46.239Z,7.87
2023-04-15T22:37:16.755Z,7.87
2023-04-15T22:39:46.977Z,7.80
2023-04-15T22:42:16.945Z,7.70
2023-04-15T22:44:47.632Z,7.71
2023-04-15T22:47:20.904Z,7.68
2023-04-15T22:49:51.457Z,7.75
2023-04-15T22:52:30.003Z,7.84
2023-04-15T22:55:02.035Z,7.84
2023-04-15T22:57:31.796Z,7.68
2023-04-15T23:00:01.338Z,7.57
2023-04-15T23:02:33.573Z,7.50
2023-04-15T23:05:11.606Z,7.23
2023-04-15T23:07:43.106Z,7.21
2023-04-15T23:10:13.307Z,7.32
2023-04-15T23:12:43.068Z,7.13
2023-04-15T23:15:14.889Z,7.00
2023-04-15T23:17:47.786Z,7.46
2023-04-15T23:20:18.179Z,7.39
2023-04-15T23:22:50.067Z,7.14
2023-04-15T23:25:22.779Z,7.19
2023-04-15T23:27:53.427Z,7.36
2023-04-15T23:30:24.464Z,7.50
2023-04-15T23:32:56.189Z,7.45
2023-04-15T23:35:26.339Z,7.38
2023-04-15T23:37:56.026Z,7.83
2023-04-15T23:40:26.144Z,7.58
2023-04-15T23:42:56.198Z,7.08
2023-04-15T23:45:27.109Z,6.95
2023-04-15T23:48:00.305Z,7.03
2023-04-15T23:50:31.438Z,7.26
2023-04-15T23:53:01.317Z,7.14
2023-04-15T23:55:32.466Z,7.02
2023-04-15T23:58:02.396Z,7.32
